Arlington, Wisconsin
Current Conditions -  °F | °C
As of 3:53 PM on Tuesday 21 Oct 2014 (Local Time) from KMSN Reporting Station
Overcast Overcast  
Wind Chill: 44°   Ceiling: 2600
Heat Index: 48°   Visibility: 10mi
Dew Point: 37°   Wind: 8mph
Humidity: 66%   Direction: 70°ENE
Pressure: 30.22"   Gusts: NA
Location:  43.34°N, 89.38°W
Report Text: KMSN 212053Z 07007KT 10SM OVC026 09/03 A3022 RMK AO2 SLP239 T00890028 56003
Loading
Personal Weather Stations






























Interactive Weather Map
Tropical Storm Tracking
New forecast layout! Learn more

10-Day Weather Forecast

Advertisements
Track Severe Weather on mobile